createdAt,value
2018-12-02T00:01:18.521Z,3.37
2018-12-02T00:03:45.921Z,3.07
2018-12-02T00:06:13.340Z,3.53
2018-12-02T00:08:40.795Z,2.60
2018-12-02T00:11:08.207Z,3.40
2018-12-02T00:13:35.737Z,3.70
2018-12-02T00:16:03.246Z,3.10
2018-12-02T00:18:30.704Z,3.30
2018-12-02T00:20:58.224Z,2.93
2018-12-02T00:23:25.815Z,3.10
2018-12-02T00:25:53.292Z,3.07
2018-12-02T00:28:20.853Z,2.97
2018-12-02T00:30:48.389Z,3.10
2018-12-02T00:33:15.838Z,3.07
2018-12-02T00:35:43.260Z,3.10
2018-12-02T00:38:10.877Z,4.17
2018-12-02T00:40:38.397Z,3.40
2018-12-02T00:43:07.219Z,2.80
2018-12-02T00:45:35.872Z,3.33
2018-12-02T00:48:04.970Z,3.77
2018-12-02T00:50:32.542Z,3.27
2018-12-02T00:53:00.719Z,2.90
2018-12-02T00:55:32.671Z,3.47
2018-12-02T00:58:00.260Z,3.80
2018-12-02T01:00:27.919Z,3.50
2018-12-02T01:02:55.409Z,4.40
2018-12-02T01:05:23.280Z,3.10
2018-12-02T01:07:50.912Z,3.67
2018-12-02T01:10:20.343Z,3.43
2018-12-02T01:12:49.046Z,3.40
2018-12-02T01:15:17.883Z,3.13
2018-12-02T01:17:45.416Z,3.50
2018-12-02T01:20:15.125Z,4.10
2018-12-02T01:22:42.888Z,3.30
2018-12-02T01:25:11.452Z,3.50
2018-12-02T01:27:39.032Z,3.70
2018-12-02T01:30:12.289Z,3.13
2018-12-02T01:32:40.031Z,2.80
2018-12-02T01:35:08.260Z,3.40
2018-12-02T01:37:35.976Z,3.43
2018-12-02T01:40:04.815Z,3.20
2018-12-02T01:42:32.279Z,3.37
2018-12-02T01:44:59.709Z,3.10
2018-12-02T01:47:27.214Z,4.10
2018-12-02T01:49:54.611Z,2.50
2018-12-02T01:52:22.151Z,3.97
2018-12-02T01:54:49.671Z,3.60
2018-12-02T01:57:17.122Z,3.40
2018-12-02T01:59:44.567Z,2.87
2018-12-02T02:02:12.023Z,2.77
2018-12-02T02:04:39.435Z,3.33
2018-12-02T02:07:06.915Z,3.03
2018-12-02T02:09:34.399Z,2.80
2018-12-02T02:12:01.935Z,3.43
2018-12-02T02:14:29.323Z,3.47
2018-12-02T02:16:56.835Z,3.90
2018-12-02T02:19:24.225Z,4.07
2018-12-02T02:21:51.797Z,4.50
2018-12-02T02:24:19.251Z,3.20
2018-12-02T02:26:46.655Z,3.60
2018-12-02T02:29:14.211Z,3.47
2018-12-02T02:31:41.626Z,3.30
2018-12-02T02:34:09.057Z,3.20
2018-12-02T02:36:36.508Z,3.40
2018-12-02T02:39:06.447Z,3.60
2018-12-02T02:41:33.848Z,3.60
2018-12-02T02:44:01.328Z,3.57
2018-12-02T02:46:28.764Z,3.57
2018-12-02T02:48:56.203Z,3.63
2018-12-02T02:51:23.695Z,4.10
2018-12-02T02:53:51.159Z,3.40
2018-12-02T02:56:18.596Z,3.10
2018-12-02T02:58:46.104Z,3.33
2018-12-02T03:01:13.514Z,4.10
2018-12-02T03:03:40.944Z,3.20
2018-12-02T03:06:08.407Z,2.90
2018-12-02T03:08:35.874Z,2.73
2018-12-02T03:11:03.329Z,3.20
2018-12-02T03:13:30.893Z,3.30
2018-12-02T03:15:58.307Z,3.10
2018-12-02T03:18:25.883Z,3.63
2018-12-02T03:20:53.423Z,2.50
2018-12-02T03:23:20.878Z,3.00
2018-12-02T03:25:48.331Z,4.23
2018-12-02T03:28:15.771Z,3.00
2018-12-02T03:30:43.174Z,2.90
2018-12-02T03:33:10.690Z,2.53
2018-12-02T03:35:38.088Z,2.47
2018-12-02T03:38:06.101Z,2.40
2018-12-02T03:40:33.599Z,2.70
2018-12-02T03:43:01.153Z,2.90
2018-12-02T03:45:28.609Z,2.67
2018-12-02T03:47:56.916Z,2.40
2018-12-02T03:50:24.535Z,3.57
2018-12-02T03:52:51.959Z,3.03
2018-12-02T03:55:19.489Z,2.37
2018-12-02T03:57:47.018Z,1.90
2018-12-02T04:00:16.387Z,2.50
2018-12-02T04:02:43.887Z,2.73
2018-12-02T04:05:12.735Z,2.20
2018-12-02T04:07:40.284Z,4.00
2018-12-02T04:10:11.771Z,3.03
2018-12-02T04:12:39.346Z,2.13
2018-12-02T04:15:08.776Z,2.53
2018-12-02T04:17:36.188Z,2.10
2018-12-02T04:20:04.391Z,2.40
2018-12-02T04:22:31.852Z,2.27
2018-12-02T04:24:59.493Z,2.30
2018-12-02T04:27:26.901Z,3.00
2018-12-02T04:29:54.437Z,2.43
2018-12-02T04:32:21.895Z,2.77
2018-12-02T04:34:49.477Z,3.60
2018-12-02T04:37:16.912Z,2.47
2018-12-02T04:39:44.395Z,3.10
2018-12-02T04:42:11.865Z,3.07
2018-12-02T04:44:39.255Z,3.13
2018-12-02T04:47:06.804Z,2.80
2018-12-02T04:49:34.277Z,3.40
2018-12-02T04:52:01.735Z,2.93
2018-12-02T04:54:29.232Z,2.83
2018-12-02T04:56:56.659Z,3.40
2018-12-02T04:59:24.117Z,3.10
2018-12-02T05:01:52.055Z,3.37
2018-12-02T05:04:19.491Z,2.03
2018-12-02T05:06:46.968Z,2.87
2018-12-02T05:09:14.398Z,2.70
2018-12-02T05:11:41.844Z,2.77
2018-12-02T05:14:09.269Z,2.90
2018-12-02T05:16:36.869Z,3.73
2018-12-02T05:19:04.399Z,3.57
2018-12-02T05:21:31.930Z,3.43
2018-12-02T05:23:59.438Z,2.90
2018-12-02T05:26:29.756Z,3.00
2018-12-02T05:28:57.304Z,2.50
2018-12-02T05:31:24.695Z,3.00
2018-12-02T05:33:52.279Z,3.40
2018-12-02T05:36:19.670Z,2.77
2018-12-02T05:38:47.188Z,3.00
2018-12-02T05:41:14.609Z,2.77
2018-12-02T05:43:42.277Z,3.10
2018-12-02T05:46:09.689Z,3.07
2018-12-02T05:48:37.145Z,2.97
2018-12-02T05:51:05.332Z,3.03
2018-12-02T05:53:32.911Z,2.83
2018-12-02T05:56:00.355Z,3.30
2018-12-02T05:58:27.791Z,2.87
2018-12-02T06:00:55.234Z,2.37
2018-12-02T06:03:22.858Z,2.70
2018-12-02T06:05:50.381Z,3.53
2018-12-02T06:08:17.913Z,2.80
2018-12-02T06:10:45.409Z,3.30
2018-12-02T06:13:12.893Z,2.87
2018-12-02T06:15:40.325Z,2.60
2018-12-02T06:18:07.929Z,3.47
2018-12-02T06:20:35.433Z,2.70
2018-12-02T06:23:02.863Z,2.90
2018-12-02T06:25:30.281Z,2.90
2018-12-02T06:27:57.695Z,3.53
2018-12-02T06:30:28.297Z,3.57
2018-12-02T06:33:00.009Z,2.60
2018-12-02T06:35:27.524Z,2.93
2018-12-02T06:37:55.910Z,3.30
2018-12-02T06:40:25.656Z,3.37
2018-12-02T06:42:53.110Z,3.10
2018-12-02T06:45:21.165Z,2.80
2018-12-02T06:47:48.775Z,2.97
2018-12-02T06:50:18.207Z,3.30
2018-12-02T06:52:45.621Z,3.10
2018-12-02T06:55:41.818Z,3.20
2018-12-02T06:58:18.196Z,2.57
2018-12-02T07:00:57.636Z,2.50
2018-12-02T07:03:38.496Z,2.70
2018-12-02T07:06:06.336Z,2.53
2018-12-02T07:08:33.766Z,2.60
2018-12-02T07:11:01.173Z,3.03
2018-12-02T07:13:28.988Z,3.40
2018-12-02T07:15:56.474Z,3.57
2018-12-02T07:18:27.308Z,3.73
2018-12-02T07:20:57.497Z,3.33
2018-12-02T07:23:29.187Z,3.07
2018-12-02T07:25:59.836Z,3.70
2018-12-02T07:28:27.255Z,3.33
2018-12-02T07:30:54.728Z,3.30
2018-12-02T07:33:22.220Z,3.20
2018-12-02T07:35:49.629Z,3.47
2018-12-02T07:38:26.742Z,3.27
2018-12-02T07:40:55.512Z,2.77
2018-12-02T07:43:23.076Z,3.60
2018-12-02T07:45:50.503Z,2.97
2018-12-02T07:48:17.948Z,3.80
2018-12-02T07:50:45.384Z,3.90
2018-12-02T07:53:12.941Z,3.43
2018-12-02T07:55:40.356Z,3.00
2018-12-02T07:58:13.530Z,3.07
2018-12-02T08:00:40.978Z,2.83
2018-12-02T08:03:08.639Z,2.93
2018-12-02T08:05:36.250Z,2.77
2018-12-02T08:08:04.069Z,3.17
2018-12-02T08:10:31.706Z,2.97
2018-12-02T08:12:59.202Z,2.77
2018-12-02T08:15:26.760Z,2.13
2018-12-02T08:17:54.384Z,2.50
2018-12-02T08:20:21.896Z,2.70
2018-12-02T08:22:51.484Z,2.60
2018-12-02T08:25:18.596Z,2.10
2018-12-02T08:27:46.670Z,2.10
2018-12-02T08:30:17.437Z,3.00
2018-12-02T08:32:44.871Z,2.77
2018-12-02T08:35:13.584Z,2.70
2018-12-02T08:37:42.202Z,2.57
2018-12-02T08:40:11.119Z,2.37
2018-12-02T08:42:39.019Z,2.10
2018-12-02T08:45:08.911Z,2.60
2018-12-02T08:47:36.401Z,2.43
2018-12-02T08:50:06.218Z,2.40
2018-12-02T08:52:33.700Z,2.80
2018-12-02T08:55:01.220Z,2.53
2018-12-02T08:57:28.727Z,2.50
2018-12-02T08:59:56.157Z,2.67
2018-12-02T09:02:23.698Z,2.53
2018-12-02T09:04:51.160Z,2.53
2018-12-02T09:07:18.667Z,2.47
2018-12-02T09:09:46.167Z,2.50
2018-12-02T09:12:13.842Z,3.00
2018-12-02T09:14:41.355Z,3.20
2018-12-02T09:17:08.810Z,3.00
2018-12-02T09:19:36.494Z,2.70
2018-12-02T09:22:04.247Z,2.57
2018-12-02T09:24:31.696Z,3.03
2018-12-02T09:26:59.621Z,3.20
2018-12-02T09:29:27.107Z,3.27
2018-12-02T09:31:54.557Z,3.17
2018-12-02T09:34:22.106Z,3.20
2018-12-02T09:36:49.795Z,3.00
2018-12-02T09:39:18.447Z,3.23
2018-12-02T09:41:44.669Z,3.30
2018-12-02T09:44:12.090Z,3.27
2018-12-02T09:46:39.930Z,3.47
2018-12-02T09:49:07.432Z,3.13
2018-12-02T09:51:34.828Z,3.43
2018-12-02T09:54:02.292Z,3.77
2018-12-02T09:56:29.795Z,3.10
2018-12-02T09:58:57.242Z,3.20
2018-12-02T10:01:24.714Z,3.20
2018-12-02T10:03:52.284Z,3.50
2018-12-02T10:06:19.779Z,3.67
2018-12-02T10:08:47.283Z,3.87
2018-12-02T10:11:14.820Z,3.37
2018-12-02T10:13:42.285Z,3.53
2018-12-02T10:16:15.424Z,4.03
2018-12-02T10:18:37.240Z,3.37
2018-12-02T10:21:05.079Z,3.30
2018-12-02T10:23:32.525Z,3.60
2018-12-02T10:26:00.024Z,3.30
2018-12-02T10:28:27.427Z,3.30
2018-12-02T10:30:54.880Z,3.97
2018-12-02T10:33:22.470Z,3.70
2018-12-02T10:35:49.903Z,3.90
2018-12-02T10:38:17.470Z,4.07
2018-12-02T10:40:44.942Z,4.47
2018-12-02T10:43:12.372Z,4.20
2018-12-02T10:45:39.826Z,4.40
2018-12-02T10:48:10.686Z,3.20
2018-12-02T10:50:38.338Z,3.27
2018-12-02T10:53:08.795Z,3.20
2018-12-02T10:55:40.231Z,3.33
2018-12-02T10:58:09.787Z,3.73
2018-12-02T11:00:42.988Z,3.30
2018-12-02T11:03:10.502Z,3.13
2018-12-02T11:05:38.036Z,2.97
2018-12-02T11:08:05.575Z,3.30
2018-12-02T11:10:33.253Z,2.47
2018-12-02T11:13:00.844Z,2.70
2018-12-02T11:15:28.367Z,3.50
2018-12-02T11:17:55.804Z,3.10
2018-12-02T11:20:23.311Z,3.03
2018-12-02T11:22:50.835Z,3.37
2018-12-02T11:25:18.300Z,3.90
2018-12-02T11:27:45.796Z,2.90
2018-12-02T11:30:14.681Z,2.80
2018-12-02T11:32:42.917Z,2.97
2018-12-02T11:35:13.590Z,2.47
2018-12-02T11:37:41.117Z,3.00
2018-12-02T11:40:12.840Z,2.03
2018-12-02T11:42:40.380Z,2.37
2018-12-02T11:45:11.012Z,2.37
2018-12-02T11:47:39.346Z,2.60
2018-12-02T11:50:12.186Z,2.37
2018-12-02T11:52:39.775Z,2.03
2018-12-02T11:55:08.501Z,2.30
2018-12-02T11:57:36.034Z,2.40
2018-12-02T12:00:10.011Z,2.20
2018-12-02T12:02:37.504Z,2.23
2018-12-02T12:05:05.904Z,2.73
2018-12-02T12:07:33.361Z,2.27
2018-12-02T12:10:00.813Z,2.13
2018-12-02T12:12:28.370Z,2.57
2018-12-02T12:14:55.890Z,2.27
2018-12-02T12:17:23.531Z,2.40
2018-12-02T12:19:51.003Z,2.13
2018-12-02T12:22:18.457Z,2.70
2018-12-02T12:24:45.855Z,2.10
2018-12-02T12:27:13.344Z,2.20
2018-12-02T12:29:40.752Z,2.97
2018-12-02T12:32:08.252Z,2.00
2018-12-02T12:34:35.690Z,1.80
2018-12-02T12:37:03.172Z,1.67
2018-12-02T12:39:30.722Z,1.70
2018-12-02T12:41:58.198Z,1.60
2018-12-02T12:44:25.716Z,2.17
2018-12-02T12:46:53.233Z,1.50
2018-12-02T12:49:20.670Z,1.73
2018-12-02T12:51:48.196Z,1.50
2018-12-02T12:54:15.689Z,1.90
2018-12-02T12:56:43.289Z,2.37
2018-12-02T12:59:10.728Z,1.90
2018-12-02T13:01:38.377Z,1.50
2018-12-02T13:04:05.872Z,1.40
2018-12-02T13:06:33.453Z,1.40
2018-12-02T13:09:00.929Z,1.50
2018-12-02T13:11:28.364Z,2.03
2018-12-02T13:13:55.821Z,1.50
2018-12-02T13:16:23.388Z,1.63
2018-12-02T13:18:50.929Z,1.60
2018-12-02T13:21:18.374Z,1.67
2018-12-02T13:23:45.808Z,1.43
2018-12-02T13:26:14.289Z,1.80
2018-12-02T13:28:41.736Z,1.43
2018-12-02T13:31:09.230Z,1.80
2018-12-02T13:33:36.809Z,2.87
2018-12-02T13:36:04.865Z,1.57
2018-12-02T13:38:32.494Z,1.87
2018-12-02T13:40:59.984Z,2.40
2018-12-02T13:43:27.561Z,1.70
2018-12-02T13:45:55.014Z,1.77
2018-12-02T13:48:22.484Z,1.80
2018-12-02T13:50:49.936Z,1.50
2018-12-02T13:53:17.446Z,1.40
2018-12-02T13:55:45.032Z,1.37
2018-12-02T13:58:12.600Z,1.73
2018-12-02T14:00:41.761Z,2.07
2018-12-02T14:03:13.461Z,2.00
2018-12-02T14:05:44.215Z,1.90
2018-12-02T14:08:11.669Z,2.13
2018-12-02T14:10:39.232Z,1.90
2018-12-02T14:13:13.497Z,1.83
2018-12-02T14:17:53.780Z,1.90
2018-12-02T14:20:21.392Z,1.77
2018-12-02T14:22:48.800Z,2.13
2018-12-02T14:25:16.240Z,1.57
2018-12-02T14:27:45.504Z,1.33
2018-12-02T14:30:15.179Z,2.27
2018-12-02T14:32:42.627Z,1.97
2018-12-02T14:35:10.173Z,1.63
2018-12-02T14:37:38.143Z,1.70
2018-12-02T14:40:10.862Z,1.80
2018-12-02T14:42:39.312Z,1.70
2018-12-02T14:45:11.641Z,1.77
2018-12-02T14:47:39.151Z,1.97
2018-12-02T14:50:10.105Z,1.53
2018-12-02T14:52:37.797Z,1.47
2018-12-02T14:55:07.066Z,1.50
2018-12-02T14:57:34.657Z,1.50
2018-12-02T15:00:02.832Z,1.70
2018-12-02T15:02:30.780Z,1.70
2018-12-02T15:04:58.262Z,1.37
2018-12-02T15:07:25.864Z,1.30
2018-12-02T15:09:53.252Z,1.60
2018-12-02T15:12:20.804Z,1.90
2018-12-02T15:14:48.348Z,1.53
2018-12-02T15:17:47.023Z,1.40
2018-12-02T15:20:15.873Z,1.40
2018-12-02T15:22:43.393Z,1.93
2018-12-02T15:25:13.041Z,1.20
2018-12-02T15:27:41.099Z,2.90
2018-12-02T15:30:11.730Z,1.50
2018-12-02T15:32:39.772Z,1.50
2018-12-02T15:35:08.489Z,1.53
2018-12-02T15:37:35.926Z,1.80
2018-12-02T15:40:04.240Z,1.70
2018-12-02T15:42:31.799Z,1.60
2018-12-02T15:44:59.402Z,1.30
2018-12-02T15:47:26.852Z,1.00
2018-12-02T15:49:54.333Z,0.93
2018-12-02T15:52:21.734Z,1.10
2018-12-02T15:54:49.300Z,1.47
2018-12-02T15:57:16.845Z,1.60
2018-12-02T15:59:44.265Z,1.30
2018-12-02T16:02:11.671Z,1.30
2018-12-02T16:04:39.552Z,1.60
2018-12-02T16:07:07.051Z,1.60
2018-12-02T16:09:34.741Z,1.40
2018-12-02T16:12:02.270Z,1.33
2018-12-02T16:14:29.681Z,1.37
2018-12-02T16:16:57.117Z,1.50
2018-12-02T16:19:24.640Z,1.30
2018-12-02T16:21:52.109Z,1.40
2018-12-02T16:24:19.632Z,1.20
2018-12-02T16:26:47.116Z,1.37
2018-12-02T16:29:14.770Z,1.60
2018-12-02T16:31:42.216Z,1.67
2018-12-02T16:34:09.704Z,1.73
2018-12-02T16:36:37.120Z,1.37
2018-12-02T16:39:08.305Z,1.77
2018-12-02T16:41:35.854Z,1.60
2018-12-02T16:44:03.436Z,1.70
2018-12-02T16:46:30.978Z,1.73
2018-12-02T16:48:58.811Z,1.97
2018-12-02T16:51:26.293Z,1.70
2018-12-02T16:53:53.876Z,1.80
2018-12-02T16:56:21.423Z,1.53
2018-12-02T16:58:55.380Z,1.27
2018-12-02T17:01:24.340Z,1.60
2018-12-02T17:03:54.448Z,1.80
2018-12-02T17:06:22.081Z,1.70
2018-12-02T17:08:49.593Z,1.60
2018-12-02T17:11:17.081Z,2.10
2018-12-02T17:13:44.569Z,1.57
2018-12-02T17:16:12.028Z,2.17
2018-12-02T17:18:39.561Z,2.13
2018-12-02T17:21:07.029Z,1.90
2018-12-02T17:23:34.475Z,2.17
2018-12-02T17:26:02.066Z,2.03
2018-12-02T17:28:29.588Z,2.07
2018-12-02T17:30:58.957Z,2.10
2018-12-02T17:33:26.569Z,1.80
2018-12-02T17:35:54.019Z,1.90
2018-12-02T17:38:22.961Z,2.20
2018-12-02T17:40:50.977Z,2.00
2018-12-02T17:43:18.399Z,1.97
2018-12-02T17:45:45.881Z,1.60
2018-12-02T17:48:13.269Z,1.60
2018-12-02T17:50:40.703Z,1.90
2018-12-02T17:53:10.494Z,1.70
2018-12-02T17:55:37.997Z,2.10
2018-12-02T17:58:05.500Z,1.83
2018-12-02T18:00:33.323Z,1.63
2018-12-02T18:03:01.815Z,1.57
2018-12-02T18:05:32.232Z,1.90
2018-12-02T18:07:59.712Z,2.40
2018-12-02T18:10:27.238Z,1.70
2018-12-02T18:12:54.945Z,2.53
2018-12-02T18:15:22.527Z,2.03
2018-12-02T18:17:50.146Z,2.00
2018-12-02T18:20:18.165Z,2.30
2018-12-02T18:22:46.314Z,2.23
2018-12-02T18:25:14.987Z,2.30
2018-12-02T18:27:42.501Z,2.50
2018-12-02T18:30:16.770Z,2.70
2018-12-02T18:33:00.380Z,2.53
2018-12-02T18:35:30.421Z,2.97
2018-12-02T18:38:01.778Z,3.23
2018-12-02T18:40:28.457Z,2.70
2018-12-02T18:42:55.947Z,3.00
2018-12-02T18:45:23.361Z,2.57
2018-12-02T18:47:50.872Z,2.90
2018-12-02T18:50:18.447Z,2.90
2018-12-02T18:52:45.953Z,3.40
2018-12-02T18:55:13.557Z,3.60
2018-12-02T18:57:41.301Z,3.13
2018-12-02T19:00:18.993Z,3.57
2018-12-02T19:02:47.492Z,3.37
2018-12-02T19:05:15.019Z,3.33
2018-12-02T19:07:42.597Z,3.80
2018-12-02T19:10:12.241Z,2.93
2018-12-02T19:12:39.845Z,3.50
2018-12-02T19:15:09.684Z,3.53
2018-12-02T19:17:37.401Z,3.90
2018-12-02T19:20:09.101Z,3.23
2018-12-02T19:22:36.638Z,3.80
2018-12-02T19:25:05.355Z,3.43
2018-12-02T19:27:32.966Z,3.10
2018-12-02T19:30:01.101Z,3.37
2018-12-02T19:32:28.718Z,2.90
2018-12-02T19:34:56.281Z,3.10
2018-12-02T19:37:23.741Z,3.50
2018-12-02T19:39:51.372Z,2.70
2018-12-02T19:42:18.810Z,2.33
2018-12-02T19:44:46.360Z,2.30
2018-12-02T19:47:13.848Z,2.33
2018-12-02T19:49:41.297Z,2.10
2018-12-02T19:52:08.918Z,3.00
2018-12-02T19:54:36.422Z,2.50
2018-12-02T19:57:04.460Z,2.10
2018-12-02T19:59:32.120Z,2.20
2018-12-02T20:01:59.806Z,2.43
2018-12-02T20:04:27.344Z,3.03
2018-12-02T20:06:54.868Z,2.87
2018-12-02T20:09:22.469Z,2.70
2018-12-02T20:11:50.030Z,3.00
2018-12-02T20:14:17.559Z,2.50
2018-12-02T20:16:45.076Z,3.07
2018-12-02T20:19:18.191Z,2.30
2018-12-02T20:21:45.789Z,2.70
2018-12-02T20:24:18.981Z,2.87
2018-12-02T20:26:46.579Z,2.87
2018-12-02T20:29:14.017Z,2.80
2018-12-02T20:31:41.473Z,3.00
2018-12-02T20:34:08.947Z,3.40
2018-12-02T20:36:36.572Z,3.00
2018-12-02T20:39:08.152Z,3.50
2018-12-02T20:41:35.648Z,3.40
2018-12-02T20:44:04.146Z,4.30
2018-12-02T20:46:31.698Z,3.83
2018-12-02T20:49:06.290Z,3.27
2018-12-02T20:51:33.814Z,3.07
2018-12-02T20:54:01.248Z,3.17
2018-12-02T20:56:28.746Z,3.40
2018-12-02T20:58:56.179Z,3.20
2018-12-02T21:01:23.683Z,4.03
2018-12-02T21:03:51.170Z,3.20
2018-12-02T21:06:20.045Z,3.27
2018-12-02T21:08:47.509Z,3.00
2018-12-02T21:11:15.099Z,3.63
2018-12-02T21:13:42.521Z,3.60
2018-12-02T21:16:10.023Z,3.70
2018-12-02T21:18:37.599Z,4.57
2018-12-02T21:21:05.243Z,3.57
2018-12-02T21:23:32.897Z,4.20
2018-12-02T21:26:00.773Z,4.30
2018-12-02T21:28:28.269Z,4.53
2018-12-02T21:30:55.904Z,4.17
2018-12-02T21:33:23.377Z,4.50
2018-12-02T21:35:51.514Z,4.07
2018-12-02T21:38:19.085Z,4.87
2018-12-02T21:40:46.611Z,5.37
2018-12-02T21:43:14.042Z,4.67
2018-12-02T21:45:41.519Z,4.30
2018-12-02T21:48:12.771Z,4.60
2018-12-02T21:50:40.264Z,4.43
2018-12-02T21:53:07.777Z,4.40
2018-12-02T21:55:35.338Z,3.97
2018-12-02T21:58:02.818Z,4.47
2018-12-02T22:00:36.209Z,4.53
2018-12-02T22:03:03.785Z,3.33
2018-12-02T22:05:31.315Z,3.90
2018-12-02T22:07:58.977Z,3.50
2018-12-02T22:10:30.646Z,3.63
2018-12-02T22:12:58.347Z,3.40
2018-12-02T22:15:25.840Z,3.90
2018-12-02T22:17:53.314Z,3.73
2018-12-02T22:20:20.866Z,3.80
2018-12-02T22:22:48.307Z,3.20
2018-12-02T22:25:18.763Z,3.20
2018-12-02T22:27:47.456Z,3.00
2018-12-02T22:30:16.876Z,3.20
2018-12-02T22:32:44.384Z,2.83
2018-12-02T22:35:12.925Z,3.33
2018-12-02T22:37:40.600Z,3.30
2018-12-02T22:40:10.403Z,3.70
2018-12-02T22:42:37.911Z,2.80
2018-12-02T22:45:12.138Z,3.80
2018-12-02T22:47:39.634Z,2.90
2018-12-02T22:50:10.129Z,3.17
2018-12-02T22:52:37.725Z,3.60
2018-12-02T22:55:07.136Z,3.13
2018-12-02T22:57:34.893Z,4.30
2018-12-02T23:00:02.426Z,4.20
2018-12-02T23:02:34.453Z,4.13
2018-12-02T23:05:01.967Z,4.00
2018-12-02T23:07:29.435Z,4.30
2018-12-02T23:09:56.927Z,4.20
2018-12-02T23:12:24.410Z,4.33
2018-12-02T23:14:51.974Z,5.30
2018-12-02T23:17:21.518Z,5.07
2018-12-02T23:19:49.009Z,4.17
2018-12-02T23:22:16.550Z,5.00
2018-12-02T23:24:44.081Z,5.10
2018-12-02T23:27:11.536Z,4.70
2018-12-02T23:29:39.108Z,4.70
2018-12-02T23:32:06.616Z,4.20
2018-12-02T23:34:34.201Z,4.60
2018-12-02T23:37:01.760Z,4.70
2018-12-02T23:39:29.227Z,5.07
2018-12-02T23:41:56.686Z,4.70
2018-12-02T23:44:24.290Z,4.37
2018-12-02T23:46:51.829Z,3.50
2018-12-02T23:49:19.351Z,3.40
2018-12-02T23:51:47.149Z,3.53
2018-12-02T23:54:14.701Z,3.37
2018-12-02T23:56:42.245Z,3.60
2018-12-02T23:59:10.073Z,2.40
